Time;durP1;ratioP1;P1;durP2;ratioP2;P2;SDS_P1;SDS_P2;PMS_P1;PMS_P2;Temp;Humidity;BMP_temperature;BMP_pressure;BME280_temperature;BME280_humidity;BME280_pressure;Samples;Min_cycle;Max_cycle;Signal;HPM_P1;HPM_P2
2022/10/16 00:00:31;;;;;;;2.15;1.73;;;15.90;99.90;;;;;;5015819;28;20231;-72
2022/10/16 00:02:56;;;;;;;2.35;2.10;;;15.90;99.90;;;;;;5008779;28;20637;-72
2022/10/16 00:05:22;;;;;;;2.95;1.83;;;15.90;99.90;;;;;;5006063;28;20215;-71
2022/10/16 00:07:48;;;;;;;2.10;1.90;;;16.00;99.90;;;;;;5017763;28;20316;-71
2022/10/16 00:10:13;;;;;;;2.30;1.98;;;16.00;99.90;;;;;;5013650;28;20605;-72
2022/10/16 00:12:39;;;;;;;5.00;2.30;;;16.00;99.90;;;;;;5006441;28;20208;-70
2022/10/16 00:15:05;;;;;;;3.88;1.77;;;16.00;99.90;;;;;;5020641;28;20212;-70
2022/10/16 00:17:31;;;;;;;2.03;1.80;;;16.00;99.90;;;;;;5016212;28;20177;-70
2022/10/16 00:19:56;;;;;;;3.80;2.28;;;16.00;99.90;;;;;;5010236;28;20206;-70
2022/10/16 00:22:22;;;;;;;3.83;1.90;;;16.00;99.90;;;;;;5009767;28;20196;-70
2022/10/16 00:24:48;;;;;;;2.47;1.92;;;16.00;99.90;;;;;;5016525;28;20221;-70
2022/10/16 00:27:13;;;;;;;4.13;1.90;;;16.00;99.90;;;;;;5013650;28;20176;-70
2022/10/16 00:29:39;;;;;;;2.67;1.92;;;16.00;99.90;;;;;;4995106;28;20181;-71
2022/10/16 00:32:04;;;;;;;2.72;1.80;;;16.00;99.90;;;;;;5011409;28;20583;-70
2022/10/16 00:34:30;;;;;;;2.92;2.00;;;16.00;99.90;;;;;;5015840;28;20578;-70
2022/10/16 00:36:55;;;;;;;1.85;1.65;;;16.00;99.90;;;;;;5008272;28;20217;-71
2022/10/16 00:39:22;;;;;;;1.70;1.60;;;16.00;99.90;;;;;;5009316;28;20219;-70
2022/10/16 00:41:47;;;;;;;2.15;1.88;;;16.00;99.90;;;;;;5017034;28;20177;-70
2022/10/16 00:44:49;;;;;;;2.50;2.13;;;16.10;99.90;;;;;;5013533;28;20254;-70
2022/10/16 00:47:24;;;;;;;3.13;1.77;;;16.00;99.90;;;;;;5007126;28;20238;-70
2022/10/16 00:49:53;;;;;;;2.85;2.15;;;16.10;99.90;;;;;;5014976;28;20212;-70
2022/10/16 00:52:19;;;;;;;4.47;2.17;;;16.10;99.90;;;;;;5010453;28;20287;-70
2022/10/16 00:54:46;;;;;;;1.77;1.67;;;16.00;99.90;;;;;;5006699;28;20315;-70
2022/10/16 00:57:12;;;;;;;2.38;1.80;;;16.10;99.90;;;;;;5014319;28;20188;-70
2022/10/16 00:59:39;;;;;;;2.83;1.83;;;16.00;99.90;;;;;;4998402;28;20208;-70
2022/10/16 01:02:08;;;;;;;1.85;1.60;;;16.00;99.90;;;;;;5010413;28;20209;-70
2022/10/16 01:04:44;;;;;;;1.75;1.60;;;16.00;99.90;;;;;;5004796;28;20243;-69
2022/10/16 01:07:28;;;;;;;2.80;1.67;;;16.00;99.90;;;;;;5001136;28;20217;-70
2022/10/16 01:10:25;;;;;;;1.67;1.58;;;16.00;99.90;;;;;;5010187;28;20223;-70
2022/10/16 01:13:00;;;;;;;3.85;1.67;;;16.00;99.90;;;;;;5007028;28;20232;-70
2022/10/16 01:16:10;;;;;;;3.58;2.10;;;16.00;99.90;;;;;;5014708;28;20653;-70
2022/10/16 01:18:47;;;;;;;1.55;1.45;;;16.00;99.90;;;;;;4967230;28;20278;-70
2022/10/16 01:21:21;;;;;;;2.47;1.70;;;16.00;99.90;;;;;;5008538;28;20180;-70
2022/10/16 01:24:12;;;;;;;4.10;2.38;;;16.00;99.90;;;;;;5014474;28;20169;-70
2022/10/16 01:27:02;;;;;;;2.03;1.80;;;15.90;99.90;;;;;;5010568;28;20683;-70
2022/10/16 01:29:44;;;;;;;3.25;1.50;;;15.90;99.90;;;;;;4986555;28;20218;-69
2022/10/16 01:32:26;;;;;;;3.33;2.05;;;16.00;99.90;;;;;;5013237;28;20210;-71
2022/10/16 01:35:29;;;;;;;2.72;2.13;;;15.90;99.90;;;;;;5012496;28;20219;-69
2022/10/16 01:38:05;;;;;;;2.15;1.88;;;16.00;99.90;;;;;;5004095;28;20221;-70
2022/10/16 01:40:34;;;;;;;3.60;1.83;;;16.00;99.90;;;;;;5019740;28;20390;-70
2022/10/16 01:43:03;;;;;;;4.68;2.13;;;16.00;99.90;;;;;;5013691;28;20206;-71
2022/10/16 01:45:31;;;;;;;2.75;2.10;;;16.00;99.90;;;;;;4996708;28;20220;-71
2022/10/16 01:47:58;;;;;;;4.43;1.73;;;15.90;99.90;;;;;;5003098;28;20181;-71
2022/10/16 01:50:25;;;;;;;3.35;1.70;;;15.90;99.90;;;;;;5019320;28;20362;-70
2022/10/16 01:52:53;;;;;;;3.97;1.70;;;15.90;99.90;;;;;;4995720;28;20706;-71
2022/10/16 01:55:24;;;;;;;3.05;1.70;;;15.90;99.90;;;;;;5006192;28;20213;-68
2022/10/16 01:57:51;;;;;;;3.53;1.70;;;15.90;99.90;;;;;;5014013;28;20219;-70
2022/10/16 02:00:20;;;;;;;3.25;1.77;;;15.90;99.90;;;;;;5015274;28;20635;-71
2022/10/16 02:02:49;;;;;;;2.13;1.80;;;15.90;99.90;;;;;;5007406;28;20299;-71
2022/10/16 02:05:32;;;;;;;3.10;1.70;;;15.90;99.90;;;;;;5007940;28;20212;-71
2022/10/16 02:07:58;;;;;;;2.22;1.70;;;16.00;99.90;;;;;;5014634;28;20300;-69
2022/10/16 02:10:25;;;;;;;1.95;1.58;;;15.90;99.90;;;;;;5011412;28;20766;-69
2022/10/16 02:13:02;;;;;;;1.60;1.48;;;15.90;99.90;;;;;;5004063;28;20292;-70
2022/10/16 02:15:27;;;;;;;4.50;1.77;;;15.90;99.90;;;;;;5013590;28;20247;-70
2022/10/16 02:17:53;;;;;;;2.72;1.60;;;15.90;99.90;;;;;;4996423;28;22249;-68
2022/10/16 02:20:24;;;;;;;3.15;1.70;;;16.00;99.90;;;;;;5010188;28;20347;-69
2022/10/16 02:22:51;;;;;;;3.65;2.17;;;16.00;99.90;;;;;;5007306;28;20263;-69
2022/10/16 02:25:31;;;;;;;1.48;1.38;;;16.00;99.90;;;;;;5016630;28;20287;-69
2022/10/16 02:28:13;;;;;;;2.15;1.70;;;16.00;99.90;;;;;;4990272;28;20213;-69
2022/10/16 02:30:54;;;;;;;1.48;1.38;;;16.00;99.90;;;;;;4978876;28;20290;-68
2022/10/16 02:33:23;;;;;;;3.80;1.40;;;16.00;99.90;;;;;;5005619;28;20217;-68
2022/10/16 02:35:50;;;;;;;2.78;1.60;;;15.90;99.90;;;;;;5005063;28;20205;-69
2022/10/16 02:38:18;;;;;;;1.83;1.65;;;15.90;99.90;;;;;;5003475;28;20212;-69
2022/10/16 02:40:44;;;;;;;2.47;2.05;;;15.90;99.90;;;;;;5005809;28;20280;-69
2022/10/16 02:43:10;;;;;;;4.00;1.73;;;15.90;99.90;;;;;;5006018;28;20237;-69
2022/10/16 02:45:36;;;;;;;2.30;1.67;;;15.90;99.90;;;;;;5004280;28;20271;-69
2022/10/16 02:48:01;;;;;;;1.65;1.42;;;16.00;99.90;;;;;;5000752;28;20214;-69
2022/10/16 02:50:27;;;;;;;2.10;1.70;;;15.90;99.90;;;;;;5008783;28;20196;-70
2022/10/16 02:52:52;;;;;;;2.00;1.67;;;15.90;99.90;;;;;;5003400;28;20217;-68
2022/10/16 02:55:18;;;;;;;1.67;1.50;;;15.90;99.90;;;;;;4992437;28;20217;-69
2022/10/16 02:57:44;;;;;;;2.13;1.40;;;15.90;99.90;;;;;;5005947;28;20208;-69
2022/10/16 03:00:13;;;;;;;2.00;1.77;;;15.90;99.90;;;;;;5007335;28;20184;-69
2022/10/16 03:02:38;;;;;;;1.80;1.63;;;15.90;99.90;;;;;;5008067;28;20689;-69
2022/10/16 03:05:04;;;;;;;4.05;1.58;;;15.90;99.90;;;;;;5000468;28;20225;-69
2022/10/16 03:07:30;;;;;;;2.25;1.55;;;15.80;99.90;;;;;;5008867;28;20212;-69
2022/10/16 03:09:55;;;;;;;1.98;1.80;;;15.80;99.90;;;;;;5003741;28;20305;-69
2022/10/16 03:12:21;;;;;;;2.88;1.60;;;15.70;99.90;;;;;;5004032;28;20208;-69
2022/10/16 03:14:47;;;;;;;2.05;1.73;;;15.70;99.90;;;;;;5003930;28;20200;-69
2022/10/16 03:17:13;;;;;;;2.42;1.83;;;15.70;99.90;;;;;;4991878;28;20220;-69
2022/10/16 03:19:39;;;;;;;2.88;2.00;;;15.70;99.90;;;;;;5003691;28;20794;-69
2022/10/16 03:22:05;;;;;;;4.35;1.80;;;15.70;99.90;;;;;;5001378;28;20632;-69
2022/10/16 03:24:30;;;;;;;2.20;1.70;;;15.70;99.90;;;;;;4992477;28;20217;-69
2022/10/16 03:26:56;;;;;;;3.58;1.80;;;15.60;99.90;;;;;;5004594;28;20182;-69
2022/10/16 03:29:21;;;;;;;3.75;2.10;;;15.60;99.90;;;;;;5003534;28;20748;-69
2022/10/16 03:31:49;;;;;;;2.20;1.77;;;15.60;99.90;;;;;;5003666;28;20198;-69
2022/10/16 03:34:14;;;;;;;2.70;1.90;;;15.70;99.90;;;;;;5006988;28;20276;-69
2022/10/16 03:36:40;;;;;;;1.90;1.70;;;15.60;99.90;;;;;;5003863;28;20217;-69
2022/10/16 03:39:05;;;;;;;2.38;1.50;;;15.60;99.90;;;;;;5000740;28;20205;-70
2022/10/16 03:41:31;;;;;;;2.47;2.03;;;15.50;99.90;;;;;;5008643;28;20648;-69
2022/10/16 03:43:57;;;;;;;4.43;1.80;;;15.50;99.90;;;;;;5004255;28;20615;-70
2022/10/16 03:46:22;;;;;;;2.15;1.73;;;15.50;99.90;;;;;;5003705;28;20227;-70
2022/10/16 03:48:48;;;;;;;4.43;1.98;;;15.50;99.90;;;;;;5002235;28;20224;-69
2022/10/16 03:51:13;;;;;;;1.92;1.70;;;15.50;99.90;;;;;;5006409;28;20180;-69
2022/10/16 03:53:39;;;;;;;2.17;1.60;;;15.50;99.90;;;;;;5004672;28;20231;-69
2022/10/16 03:56:05;;;;;;;2.42;2.20;;;15.50;99.90;;;;;;5000687;28;20210;-69
2022/10/16 03:58:30;;;;;;;3.53;2.00;;;15.50;99.90;;;;;;5005033;28;20222;-69
2022/10/16 04:00:56;;;;;;;2.47;1.70;;;15.50;99.90;;;;;;5008020;28;20220;-70
2022/10/16 04:03:22;;;;;;;2.20;1.92;;;15.50;99.90;;;;;;5005587;28;20209;-69
2022/10/16 04:05:48;;;;;;;1.90;1.70;;;15.40;99.90;;;;;;5006450;28;20270;-69
2022/10/16 04:08:14;;;;;;;2.55;2.05;;;15.40;99.90;;;;;;5010447;28;20679;-69
2022/10/16 04:10:39;;;;;;;2.17;1.77;;;15.40;99.90;;;;;;5008002;28;20240;-69
2022/10/16 04:13:05;;;;;;;2.97;1.73;;;15.40;99.90;;;;;;5005649;28;20268;-69
2022/10/16 04:15:30;;;;;;;3.00;1.67;;;15.40;99.90;;;;;;5008567;28;20897;-69
2022/10/16 04:17:56;;;;;;;1.88;1.58;;;15.40;99.90;;;;;;4993448;28;20255;-69
2022/10/16 04:20:21;;;;;;;2.15;1.95;;;15.40;99.90;;;;;;4995119;28;20267;-69
2022/10/16 04:22:47;;;;;;;3.17;2.03;;;15.40;99.90;;;;;;5006023;28;20291;-71
2022/10/16 04:25:13;;;;;;;3.30;2.10;;;15.40;99.90;;;;;;5008523;28;20209;-69
2022/10/16 04:27:38;;;;;;;2.22;1.95;;;15.40;99.90;;;;;;4990228;28;20209;-69
2022/10/16 04:30:05;;;;;;;2.17;1.88;;;15.40;99.90;;;;;;5002793;28;20192;-71
2022/10/16 04:32:30;;;;;;;2.08;1.45;;;15.30;99.90;;;;;;5011615;28;20181;-70
2022/10/16 04:34:56;;;;;;;3.15;2.17;;;15.40;99.90;;;;;;5007928;28;20586;-71
2022/10/16 04:37:25;;;;;;;2.95;1.73;;;15.40;99.90;;;;;;5007141;28;20207;-71
2022/10/16 04:39:51;;;;;;;1.95;1.77;;;15.40;99.90;;;;;;5005170;28;20227;-69
2022/10/16 04:42:17;;;;;;;2.45;1.95;;;15.30;99.90;;;;;;5007150;28;20173;-69
2022/10/16 04:44:43;;;;;;;2.00;1.80;;;15.30;99.90;;;;;;5007699;28;20207;-69
2022/10/16 04:47:08;;;;;;;1.77;1.58;;;15.30;99.90;;;;;;5004269;28;20294;-69
2022/10/16 04:49:34;;;;;;;2.50;2.10;;;15.30;99.90;;;;;;5004467;28;20209;-69
2022/10/16 04:52:00;;;;;;;2.83;1.80;;;15.30;99.90;;;;;;5013931;28;20210;-69
2022/10/16 04:54:25;;;;;;;1.52;1.42;;;15.20;99.90;;;;;;4997333;28;20209;-69
2022/10/16 04:56:51;;;;;;;3.83;2.10;;;15.20;99.90;;;;;;5002414;28;20228;-69
2022/10/16 04:59:18;;;;;;;1.70;1.60;;;15.30;99.90;;;;;;5012505;28;20258;-71
2022/10/16 05:01:44;;;;;;;2.05;1.85;;;15.30;99.90;;;;;;5010495;28;20209;-71
2022/10/16 05:04:10;;;;;;;2.10;1.90;;;15.20;99.90;;;;;;5006972;28;20227;-71
2022/10/16 05:06:38;;;;;;;1.95;1.77;;;15.20;99.90;;;;;;5014866;28;20229;-69
2022/10/16 05:09:04;;;;;;;2.33;2.00;;;15.20;99.90;;;;;;4999655;28;20272;-69
2022/10/16 05:11:30;;;;;;;2.40;1.90;;;15.20;99.90;;;;;;4997129;28;20231;-69
2022/10/16 05:13:56;;;;;;;2.40;1.83;;;15.10;99.90;;;;;;5004085;28;20205;-69
2022/10/16 05:16:21;;;;;;;3.08;2.20;;;15.20;99.90;;;;;;5017476;28;20701;-70
2022/10/16 05:18:47;;;;;;;2.17;1.67;;;15.20;99.90;;;;;;5009547;28;20610;-69
2022/10/16 05:21:12;;;;;;;2.22;1.70;;;15.20;99.90;;;;;;5006993;28;20238;-69
2022/10/16 05:23:38;;;;;;;2.92;1.83;;;15.20;99.90;;;;;;5015252;28;20644;-69
2022/10/16 05:26:04;;;;;;;1.58;1.48;;;15.20;99.90;;;;;;5014383;28;20214;-69
2022/10/16 05:28:30;;;;;;;1.73;1.63;;;15.20;99.90;;;;;;5009663;28;20208;-69
2022/10/16 05:30:56;;;;;;;2.80;1.88;;;15.20;99.90;;;;;;5001986;28;20209;-69
2022/10/16 05:33:24;;;;;;;2.55;1.90;;;15.20;99.90;;;;;;5018833;28;20209;-69
2022/10/16 05:35:50;;;;;;;5.00;2.33;;;15.20;99.90;;;;;;4996723;28;20242;-70
2022/10/16 05:38:17;;;;;;;2.28;1.95;;;15.20;99.90;;;;;;5007715;28;20213;-69
2022/10/16 05:40:43;;;;;;;3.40;2.25;;;15.20;99.90;;;;;;5014505;28;20201;-69
2022/10/16 05:43:08;;;;;;;2.58;1.80;;;15.20;99.90;;;;;;4997199;28;20646;-69
2022/10/16 05:45:34;;;;;;;2.13;1.70;;;15.30;99.90;;;;;;5007340;28;20542;-69
2022/10/16 05:48:00;;;;;;;2.55;1.92;;;15.30;99.90;;;;;;5003496;28;20178;-70
2022/10/16 05:50:26;;;;;;;2.47;1.88;;;15.30;99.90;;;;;;5016184;28;20281;-70
2022/10/16 05:52:52;;;;;;;2.60;2.20;;;15.30;99.90;;;;;;5009738;28;20201;-69
2022/10/16 05:55:17;;;;;;;1.52;1.42;;;15.40;99.90;;;;;;5006753;28;20237;-69
2022/10/16 05:57:43;;;;;;;2.03;1.70;;;15.40;99.90;;;;;;5007280;28;20568;-69
2022/10/16 06:00:09;;;;;;;2.22;1.73;;;15.50;99.90;;;;;;5014849;28;20556;-69
2022/10/16 06:02:35;;;;;;;2.92;1.80;;;15.60;99.90;;;;;;5009391;28;20196;-69
2022/10/16 06:05:00;;;;;;;1.90;1.80;;;15.60;99.90;;;;;;5003704;28;20636;-69
2022/10/16 06:07:26;;;;;;;2.00;1.83;;;15.60;99.90;;;;;;5019383;28;20251;-71
2022/10/16 06:09:52;;;;;;;3.20;1.85;;;15.60;99.90;;;;;;5009645;28;20292;-71
2022/10/16 06:12:18;;;;;;;4.07;1.73;;;15.60;99.90;;;;;;5006618;28;20224;-71
2022/10/16 06:14:46;;;;;;;1.73;1.58;;;15.60;99.90;;;;;;5008778;28;20181;-70
2022/10/16 06:17:12;;;;;;;4.38;2.03;;;15.50;99.90;;;;;;5015246;28;20205;-70
2022/10/16 06:19:38;;;;;;;1.92;1.67;;;15.50;99.90;;;;;;5009253;28;20300;-70
2022/10/16 06:22:04;;;;;;;3.40;2.03;;;15.50;99.90;;;;;;5008217;28;20292;-70
2022/10/16 06:24:29;;;;;;;2.10;1.90;;;15.50;99.90;;;;;;5021535;28;20300;-70
2022/10/16 06:26:55;;;;;;;6.28;1.95;;;15.60;99.90;;;;;;5014260;28;20185;-70
2022/10/16 06:29:20;;;;;;;2.92;2.00;;;15.60;99.90;;;;;;5010971;28;20201;-70
2022/10/16 06:31:46;;;;;;;2.10;1.90;;;15.70;99.90;;;;;;5010879;28;20742;-70
2022/10/16 06:34:12;;;;;;;3.13;2.25;;;15.70;99.90;;;;;;5017352;28;20304;-71
2022/10/16 06:36:38;;;;;;;2.38;2.13;;;15.70;99.90;;;;;;4995518;28;20220;-72
2022/10/16 06:39:05;;;;;;;2.08;1.85;;;15.70;99.90;;;;;;5002889;28;20210;-71
2022/10/16 06:41:30;;;;;;;3.20;2.60;;;15.80;99.90;;;;;;5012515;28;20176;-71
2022/10/16 06:43:56;;;;;;;2.63;2.42;;;15.80;99.90;;;;;;5010054;28;20636;-71
2022/10/16 06:46:24;;;;;;;4.82;2.50;;;15.80;99.90;;;;;;5007666;28;20204;-70
2022/10/16 06:48:49;;;;;;;3.42;2.05;;;15.80;99.90;;;;;;5003886;28;20205;-73
2022/10/16 06:51:17;;;;;;;2.22;2.03;;;15.80;99.90;;;;;;5015684;28;20176;-71
2022/10/16 06:53:45;;;;;;;2.88;2.10;;;15.80;99.90;;;;;;4990723;28;20217;-71
2022/10/16 06:56:17;;;;;;;3.85;2.13;;;15.80;99.90;;;;;;5003952;28;20216;-71
2022/10/16 06:58:43;;;;;;;4.82;2.63;;;15.80;99.90;;;;;;5012144;28;20219;-70
2022/10/16 07:01:10;;;;;;;3.78;2.03;;;15.80;99.90;;;;;;5011492;28;20225;-73
2022/10/16 07:03:41;;;;;;;2.25;1.92;;;15.90;99.90;;;;;;5005318;28;20213;-71
2022/10/16 07:06:08;;;;;;;2.47;2.10;;;16.00;99.90;;;;;;5010344;28;20220;-70
2022/10/16 07:08:36;;;;;;;3.58;3.08;;;16.00;99.90;;;;;;4999378;28;20622;-71
2022/10/16 07:11:07;;;;;;;2.38;1.92;;;16.20;99.90;;;;;;5007164;28;20213;-71
2022/10/16 07:13:40;;;;;;;4.85;2.63;;;16.40;99.90;;;;;;5003943;28;20233;-71
2022/10/16 07:16:05;;;;;;;2.50;1.92;;;16.60;99.90;;;;;;5015184;28;20217;-71
2022/10/16 07:18:32;;;;;;;2.17;1.70;;;16.80;99.90;;;;;;4989470;28;20229;-71
2022/10/16 07:21:07;;;;;;;2.58;2.03;;;16.90;99.90;;;;;;5006324;28;20636;-71
2022/10/16 07:23:33;;;;;;;2.28;1.95;;;16.90;99.90;;;;;;5013343;28;20564;-71
2022/10/16 07:25:59;;;;;;;2.53;1.48;;;16.80;99.90;;;;;;5012038;28;20309;-71
2022/10/16 07:28:25;;;;;;;2.42;2.22;;;16.80;99.90;;;;;;5008642;28;20699;-71
2022/10/16 07:30:50;;;;;;;3.72;2.25;;;16.80;99.90;;;;;;4999902;28;20216;-71
2022/10/16 07:33:16;;;;;;;1.60;1.50;;;17.10;99.90;;;;;;5017535;28;20176;-71
2022/10/16 07:35:52;;;;;;;1.70;1.60;;;17.20;99.90;;;;;;5010153;28;20208;-71
2022/10/16 07:38:18;;;;;;;3.00;1.80;;;17.20;99.90;;;;;;5005569;28;20613;-71
2022/10/16 07:40:44;;;;;;;1.70;1.60;;;17.40;99.90;;;;;;5009425;28;20229;-71
2022/10/16 07:43:10;;;;;;;2.97;1.92;;;17.40;99.90;;;;;;5017346;28;20662;-70
2022/10/16 07:45:36;;;;;;;5.00;1.80;;;17.60;99.90;;;;;;5011029;28;20270;-70
2022/10/16 07:48:02;;;;;;;4.90;3.30;;;17.70;99.90;;;;;;5010067;28;20192;-70
2022/10/16 07:50:27;;;;;;;2.22;1.67;;;17.60;99.90;;;;;;5018162;28;20555;-70
2022/10/16 07:52:53;;;;;;;1.55;1.38;;;17.60;99.90;;;;;;5018477;28;20211;-70
2022/10/16 07:55:18;;;;;;;2.03;1.70;;;17.60;99.90;;;;;;5010282;28;20634;-69
2022/10/16 07:57:44;;;;;;;2.78;1.50;;;17.70;99.90;;;;;;5009661;28;20641;-70
2022/10/16 08:00:13;;;;;;;3.33;1.70;;;17.50;99.90;;;;;;5017117;28;20210;-70
2022/10/16 08:02:42;;;;;;;2.30;1.45;;;17.60;99.90;;;;;;5010978;28;20260;-72
2022/10/16 08:05:08;;;;;;;2.17;1.50;;;17.50;99.90;;;;;;5007729;28;20716;-70
2022/10/16 08:07:33;;;;;;;3.72;1.70;;;17.40;99.90;;;;;;5003354;28;20244;-69
2022/10/16 08:09:59;;;;;;;2.08;1.88;;;17.50;99.90;;;;;;5012696;28;20242;-70
2022/10/16 08:12:27;;;;;;;1.77;1.30;;;17.60;99.90;;;;;;5009518;28;20217;-73
2022/10/16 08:14:53;;;;;;;5.85;1.88;;;17.50;99.90;;;;;;5011089;28;20208;-73
2022/10/16 08:17:18;;;;;;;1.65;1.48;;;17.60;99.90;;;;;;5018450;28;20204;-72
2022/10/16 08:19:45;;;;;;;1.30;1.20;;;17.60;99.90;;;;;;5008655;28;20232;-73
2022/10/16 08:22:11;;;;;;;3.35;1.60;;;17.60;99.90;;;;;;5009004;28;20742;-73
2022/10/16 08:24:37;;;;;;;4.63;1.98;;;17.70;99.90;;;;;;5019080;28;20216;-70
2022/10/16 08:27:03;;;;;;;2.97;1.58;;;17.80;99.90;;;;;;4995906;28;20244;-70
2022/10/16 08:29:28;;;;;;;1.58;1.42;;;17.90;99.90;;;;;;5008983;28;20655;-70
2022/10/16 08:31:54;;;;;;;2.83;1.10;;;17.90;99.90;;;;;;5009425;28;20220;-70
2022/10/16 08:34:19;;;;;;;2.03;1.52;;;18.00;99.90;;;;;;5017935;28;20200;-69
2022/10/16 08:36:45;;;;;;;3.17;1.40;;;18.10;99.90;;;;;;5009912;28;20213;-70
2022/10/16 08:39:10;;;;;;;1.67;1.30;;;18.00;99.90;;;;;;5005624;28;20209;-70
2022/10/16 08:41:48;;;;;;;2.83;1.20;;;18.00;99.90;;;;;;5015100;28;20239;-69
2022/10/16 08:44:32;;;;;;;1.63;1.38;;;17.80;99.90;;;;;;5014342;28;20238;-70
2022/10/16 08:47:23;;;;;;;1.45;1.35;;;18.00;99.90;;;;;;5005528;28;20680;-71
2022/10/16 08:49:59;;;;;;;1.92;1.27;;;18.20;99.90;;;;;;5010899;28;20703;-70
2022/10/16 08:52:32;;;;;;;2.13;1.17;;;18.30;99.90;;;;;;5011480;28;20291;-71
2022/10/16 08:54:58;;;;;;;2.78;1.30;;;18.30;99.90;;;;;;5006700;28;20237;-70
2022/10/16 08:57:29;;;;;;;4.45;1.75;;;18.40;99.90;;;;;;5008646;28;20224;-70
2022/10/16 09:00:00;;;;;;;4.05;2.53;;;18.50;99.90;;;;;;5020499;28;20291;-70
2022/10/16 09:02:38;;;;;;;7.95;3.97;;;18.60;99.90;;;;;;5011432;28;20259;-71
2022/10/16 09:05:34;;;;;;;6.55;4.22;;;18.70;99.90;;;;;;5005247;28;20279;-71
2022/10/16 09:08:11;;;;;;;2.30;1.65;;;18.90;99.90;;;;;;5014930;28;20209;-71
2022/10/16 09:11:04;;;;;;;4.45;2.10;;;19.10;99.90;;;;;;5008350;28;20232;-70
2022/10/16 09:13:53;;;;;;;2.60;1.48;;;19.70;99.90;;;;;;5005831;28;20235;-71
2022/10/16 09:16:27;;;;;;;3.55;1.40;;;20.00;99.90;;;;;;5015889;28;20284;-70
2022/10/16 09:19:21;;;;;;;4.63;1.35;;;20.20;99.90;;;;;;5009061;28;20231;-70
2022/10/16 09:21:47;;;;;;;1.77;1.50;;;20.40;99.90;;;;;;5006001;28;20214;-71
2022/10/16 09:24:31;;;;;;;2.47;1.90;;;20.30;99.90;;;;;;5019758;28;20181;-70
2022/10/16 09:26:57;;;;;;;2.85;1.40;;;20.50;99.90;;;;;;5009721;28;20182;-71
2022/10/16 09:29:24;;;;;;;2.17;1.00;;;20.50;99.90;;;;;;5008552;28;20654;-73
2022/10/16 09:31:51;;;;;;;2.97;1.13;;;20.60;99.90;;;;;;5007524;28;20220;-71
2022/10/16 09:34:30;;;;;;;4.50;1.27;;;21.00;99.90;;;;;;5016747;28;20196;-70
2022/10/16 09:36:58;;;;;;;1.50;1.40;;;20.90;99.90;;;;;;5007185;28;20217;-71
2022/10/16 09:39:24;;;;;;;1.15;1.05;;;21.20;99.90;;;;;;5003851;28;20278;-70
2022/10/16 09:41:49;;;;;;;3.80;1.92;;;21.30;99.90;;;;;;5012996;28;20181;-71
2022/10/16 09:44:28;;;;;;;3.33;2.38;;;21.60;99.90;;;;;;5013023;28;20745;-70
2022/10/16 09:47:03;;;;;;;2.50;1.95;;;21.70;99.90;;;;;;5004010;28;20576;-71
2022/10/16 09:49:29;;;;;;;2.47;1.75;;;21.50;99.90;;;;;;5012302;28;20208;-70
2022/10/16 09:52:14;;;;;;;1.95;1.00;;;21.20;99.90;;;;;;5013010;28;20279;-71
2022/10/16 09:55:16;;;;;;;2.55;1.45;;;21.20;99.90;;;;;;5006222;28;20247;-70
2022/10/16 09:57:52;;;;;;;3.97;1.77;;;21.10;99.90;;;;;;4995325;28;20216;-70
2022/10/16 10:00:19;;;;;;;1.55;1.30;;;21.10;99.90;;;;;;5012539;28;20293;-71
2022/10/16 10:02:45;;;;;;;4.43;1.10;;;21.20;99.90;;;;;;5007561;28;20177;-70
2022/10/16 10:05:25;;;;;;;2.45;1.15;;;21.70;99.90;;;;;;5005865;28;20297;-70
2022/10/16 10:07:59;;;;;;;1.10;1.00;;;21.90;99.90;;;;;;5012507;28;20205;-70
2022/10/16 10:10:28;;;;;;;1.73;0.88;;;21.30;99.90;;;;;;5008995;28;20239;-70
2022/10/16 10:12:55;;;;;;;2.90;1.25;;;21.10;99.90;;;;;;5004781;28;20209;-70
2022/10/16 10:15:23;;;;;;;3.97;1.52;;;21.20;99.90;;;;;;4995626;28;20212;-70
2022/10/16 10:17:54;;;;;;;1.80;1.23;;;21.10;99.90;;;;;;5012295;28;20180;-70
2022/10/16 10:20:35;;;;;;;1.90;1.08;;;21.00;99.90;;;;;;5007662;28;20212;-70
2022/10/16 10:23:22;;;;;;;1.70;1.23;;;20.90;99.90;;;;;;5002875;28;20210;-71
2022/10/16 10:26:02;;;;;;;1.85;1.40;;;20.80;99.90;;;;;;5010849;28;20730;-72
2022/10/16 10:29:03;;;;;;;2.15;1.25;;;20.60;99.90;;;;;;5008499;28;20217;-72
2022/10/16 10:31:34;;;;;;;4.45;1.02;;;20.50;99.90;;;;;;4964379;28;20211;-72
2022/10/16 10:34:53;;;;;;;1.38;1.10;;;20.40;99.90;;;;;;5014810;28;20587;-72
2022/10/16 10:37:43;;;;;;;5.25;2.90;;;20.40;99.90;;;;;;5002092;28;20239;-72
2022/10/16 10:40:08;;;;;;;3.92;2.35;;;20.50;99.90;;;;;;5004388;28;20304;-71
2022/10/16 10:42:50;;;;;;;1.95;1.55;;;20.50;99.90;;;;;;4997322;28;20345;-71
2022/10/16 10:45:36;;;;;;;5.53;2.85;;;20.70;99.90;;;;;;5009629;28;20285;-70
2022/10/16 10:48:17;;;;;;;3.13;1.20;;;21.10;99.90;;;;;;5002809;28;20297;-71
2022/10/16 10:50:49;;;;;;;1.50;1.00;;;21.00;99.90;;;;;;5011941;28;20181;-71
2022/10/16 10:53:40;;;;;;;1.02;0.93;;;21.00;99.90;;;;;;5011280;28;20579;-71
2022/10/16 10:56:27;;;;;;;3.28;1.00;;;21.30;99.90;;;;;;5003098;28;20223;-70
2022/10/16 10:59:09;;;;;;;5.25;1.30;;;21.20;99.90;;;;;;5012240;28;20213;-70
2022/10/16 11:02:02;;;;;;;1.08;0.80;;;21.40;99.90;;;;;;5010791;28;20305;-70
2022/10/16 11:04:45;;;;;;;1.73;0.90;;;21.90;99.90;;;;;;5003833;28;20209;-71
2022/10/16 11:07:20;;;;;;;1.60;0.90;;;22.20;99.90;;;;;;5017419;28;20740;-70
2022/10/16 11:09:51;;;;;;;1.05;0.88;;;22.30;99.90;;;;;;5008748;28;20243;-71
2022/10/16 11:12:31;;;;;;;2.75;1.13;;;22.30;99.90;;;;;;5007605;28;20220;-70
2022/10/16 11:15:19;;;;;;;1.77;1.13;;;22.30;99.90;;;;;;5010104;28;20200;-71
2022/10/16 11:18:06;;;;;;;3.95;1.58;;;22.30;99.90;;;;;;5009154;28;20248;-71
2022/10/16 11:20:39;;;;;;;2.88;1.05;;;22.00;99.90;;;;;;5005453;28;20251;-70
2022/10/16 11:23:25;;;;;;;2.38;0.88;;;22.00;99.90;;;;;;5003186;28;20707;-71
2022/10/16 11:25:52;;;;;;;0.95;0.75;;;21.70;99.90;;;;;;5010232;28;20217;-71
2022/10/16 11:28:22;;;;;;;0.85;0.70;;;21.60;99.90;;;;;;5007992;28;20440;-71
2022/10/16 11:31:08;;;;;;;2.05;0.88;;;21.60;99.90;;;;;;5000995;28;20220;-71
2022/10/16 11:33:46;;;;;;;1.10;0.80;;;21.60;99.90;;;;;;5012660;28;20228;-71
2022/10/16 11:36:44;;;;;;;0.90;0.85;;;21.60;99.90;;;;;;5010369;28;20215;-71
2022/10/16 11:39:21;;;;;;;1.65;1.08;;;21.30;99.90;;;;;;5003135;28;20209;-70
2022/10/16 11:41:53;;;;;;;2.05;0.85;;;21.20;99.90;;;;;;5011880;28;20176;-71
2022/10/16 11:44:52;;;;;;;0.90;0.90;;;21.10;99.90;;;;;;5009741;28;20622;-72
2022/10/16 11:47:24;;;;;;;1.63;1.10;;;21.10;99.90;;;;;;5003455;28;20575;-71
2022/10/16 11:50:01;;;;;;;3.13;1.10;;;21.20;99.90;;;;;;5008834;28;20209;-71
2022/10/16 11:52:42;;;;;;;2.20;0.90;;;21.10;99.90;;;;;;5010472;28;20212;-71
2022/10/16 11:55:08;;;;;;;1.83;0.90;;;20.90;99.90;;;;;;5005708;28;20265;-72
2022/10/16 11:57:39;;;;;;;3.30;0.95;;;20.80;99.90;;;;;;5005951;28;20236;-71
2022/10/16 12:00:21;;;;;;;0.77;0.60;;;20.70;99.90;;;;;;5013265;28;20198;-72
2022/10/16 12:02:53;;;;;;;0.85;0.65;;;20.60;99.90;;;;;;5006576;28;20181;-72
2022/10/16 12:05:57;;;;;;;1.48;0.90;;;20.40;99.90;;;;;;5005956;28;20204;-72
2022/10/16 12:08:23;;;;;;;0.85;0.77;;;20.20;99.90;;;;;;5023354;23;20230;-69
2022/10/16 12:10:48;;;;;;;1.25;0.70;;;20.20;99.90;;;;;;5050772;28;20236;-69
2022/10/16 12:13:48;;;;;;;5.45;1.00;;;20.30;99.90;;;;;;5035637;28;20354;-69
2022/10/16 12:16:13;;;;;;;0.63;0.60;;;20.50;99.90;;;;;;4988556;28;20283;-69
2022/10/16 12:18:44;;;;;;;2.17;1.30;;;20.60;99.90;;;;;;5036422;28;20295;-69
2022/10/16 12:21:13;;;;;;;0.77;0.75;;;20.80;99.90;;;;;;5032433;28;20183;-69
2022/10/16 12:23:48;;;;;;;1.35;0.82;;;20.80;99.90;;;;;;5032537;28;20180;-70
2022/10/16 12:26:14;;;;;;;1.55;0.93;;;20.90;99.90;;;;;;5041010;28;20207;-70
2022/10/16 12:28:40;;;;;;;0.88;0.73;;;20.80;99.90;;;;;;5036067;28;20227;-69
2022/10/16 12:31:09;;;;;;;1.20;0.80;;;20.80;99.90;;;;;;5035897;28;20216;-70
2022/10/16 12:33:57;;;;;;;3.40;0.80;;;20.70;99.90;;;;;;5040981;28;20294;-70
2022/10/16 12:36:35;;;;;;;0.90;0.70;;;20.70;99.90;;;;;;5036827;28;20686;-70
2022/10/16 12:39:01;;;;;;;0.82;0.68;;;20.60;99.90;;;;;;5032984;28;20253;-69
2022/10/16 12:41:35;;;;;;;1.92;0.88;;;20.60;99.90;;;;;;5043125;28;20253;-70
2022/10/16 12:44:02;;;;;;;0.60;0.60;;;20.70;99.90;;;;;;5040256;28;20626;-69
2022/10/16 12:46:32;;;;;;;2.38;0.80;;;20.60;99.90;;;;;;5055116;28;20200;-70
2022/10/16 12:49:06;;;;;;;3.78;1.00;;;20.60;99.90;;;;;;5043220;28;20223;-71
2022/10/16 12:51:31;;;;;;;2.25;1.13;;;20.60;99.90;;;;;;5044931;28;20212;-71
2022/10/16 12:54:03;;;;;;;1.30;0.80;;;20.50;99.90;;;;;;5037856;28;20187;-73
2022/10/16 12:56:56;;;;;;;2.30;0.82;;;20.60;99.90;;;;;;5050318;28;20179;-70
2022/10/16 12:59:53;;;;;;;1.13;0.88;;;20.60;99.90;;;;;;5038297;28;20227;-70
2022/10/16 13:02:34;;;;;;;1.77;0.90;;;20.70;99.90;;;;;;5036875;28;20204;-69
2022/10/16 13:05:25;;;;;;;2.00;1.25;;;20.70;99.90;;;;;;5039642;28;20208;-70
2022/10/16 13:07:56;;;;;;;0.63;0.63;;;20.60;99.90;;;;;;5038738;28;20208;-70